sensor_id;sensor_type;location;lat;lon;timestamp;temperature;humidity
18502;DHT22;68437;52.236;5.710;2023-11-19T00:00:08;12.80;99.90
18502;DHT22;68437;52.236;5.710;2023-11-19T00:02:37;12.80;99.90
18502;DHT22;68437;52.236;5.710;2023-11-19T00:05:05;12.80;99.90
18502;DHT22;68437;52.236;5.710;2023-11-19T00:07:34;12.80;99.90
18502;DHT22;68437;52.236;5.710;2023-11-19T00:10:01;12.80;99.90
18502;DHT22;68437;52.236;5.710;2023-11-19T00:12:36;12.80;99.90
18502;DHT22;68437;52.236;5.710;2023-11-19T00:15:03;12.80;99.90
18502;DHT22;68437;52.236;5.710;2023-11-19T00:17:32;12.80;99.90
18502;DHT22;68437;52.236;5.710;2023-11-19T00:19:59;12.90;99.90
18502;DHT22;68437;52.236;5.710;2023-11-19T00:22:25;12.80;99.90
18502;DHT22;68437;52.236;5.710;2023-11-19T00:24:53;12.80;99.90
18502;DHT22;68437;52.236;5.710;2023-11-19T00:27:20;12.80;99.90
18502;DHT22;68437;52.236;5.710;2023-11-19T00:29:47;12.80;99.90
18502;DHT22;68437;52.236;5.710;2023-11-19T00:32:13;12.80;99.90
18502;DHT22;68437;52.236;5.710;2023-11-19T00:34:43;12.80;99.90
18502;DHT22;68437;52.236;5.710;2023-11-19T00:37:10;12.80;99.90
18502;DHT22;68437;52.236;5.710;2023-11-19T00:39:38;12.80;99.90
18502;DHT22;68437;52.236;5.710;2023-11-19T00:42:05;12.80;99.90
18502;DHT22;68437;52.236;5.710;2023-11-19T00:44:32;12.80;99.90
18502;DHT22;68437;52.236;5.710;2023-11-19T00:46:59;12.80;99.90
18502;DHT22;68437;52.236;5.710;2023-11-19T00:49:26;12.70;99.90
18502;DHT22;68437;52.236;5.710;2023-11-19T00:51:54;12.70;99.90
18502;DHT22;68437;52.236;5.710;2023-11-19T00:54:21;12.70;99.90
18502;DHT22;68437;52.236;5.710;2023-11-19T00:56:51;12.70;99.90
18502;DHT22;68437;52.236;5.710;2023-11-19T00:59:17;12.70;99.90
18502;DHT22;68437;52.236;5.710;2023-11-19T01:01:47;12.70;99.90
18502;DHT22;68437;52.236;5.710;2023-11-19T01:04:14;12.70;99.90
18502;DHT22;68437;52.236;5.710;2023-11-19T01:06:41;12.70;99.90
18502;DHT22;68437;52.236;5.710;2023-11-19T01:09:10;12.70;99.90
18502;DHT22;68437;52.236;5.710;2023-11-19T01:11:36;12.70;99.90
18502;DHT22;68437;52.236;5.710;2023-11-19T01:14:03;12.70;99.90
18502;DHT22;68437;52.236;5.710;2023-11-19T01:16:30;12.80;99.90
18502;DHT22;68437;52.236;5.710;2023-11-19T01:19:00;12.80;99.90
18502;DHT22;68437;52.236;5.710;2023-11-19T01:21:30;12.80;99.90
18502;DHT22;68437;52.236;5.710;2023-11-19T01:23:57;12.80;99.90
18502;DHT22;68437;52.236;5.710;2023-11-19T01:26:26;12.80;99.90
18502;DHT22;68437;52.236;5.710;2023-11-19T01:28:53;12.80;99.90
18502;DHT22;68437;52.236;5.710;2023-11-19T01:31:19;12.80;99.90
18502;DHT22;68437;52.236;5.710;2023-11-19T01:33:46;12.80;99.90
18502;DHT22;68437;52.236;5.710;2023-11-19T01:36:13;12.80;99.90
18502;DHT22;68437;52.236;5.710;2023-11-19T01:38:42;12.80;99.90
18502;DHT22;68437;52.236;5.710;2023-11-19T01:41:09;12.70;99.90
18502;DHT22;68437;52.236;5.710;2023-11-19T01:43:38;12.80;99.90
18502;DHT22;68437;52.236;5.710;2023-11-19T01:46:07;12.80;99.90
18502;DHT22;68437;52.236;5.710;2023-11-19T01:48:36;12.70;99.90
18502;DHT22;68437;52.236;5.710;2023-11-19T01:51:07;12.80;99.90
18502;DHT22;68437;52.236;5.710;2023-11-19T01:53:38;12.80;99.90
18502;DHT22;68437;52.236;5.710;2023-11-19T01:56:08;12.80;99.90
18502;DHT22;68437;52.236;5.710;2023-11-19T01:58:37;12.80;99.90
18502;DHT22;68437;52.236;5.710;2023-11-19T02:01:05;12.80;99.90
18502;DHT22;68437;52.236;5.710;2023-11-19T02:03:33;12.80;99.90
18502;DHT22;68437;52.236;5.710;2023-11-19T02:06:00;12.80;99.90
18502;DHT22;68437;52.236;5.710;2023-11-19T02:08:27;12.80;99.90
18502;DHT22;68437;52.236;5.710;2023-11-19T02:10:55;12.80;99.90
18502;DHT22;68437;52.236;5.710;2023-11-19T02:13:23;12.80;99.90
18502;DHT22;68437;52.236;5.710;2023-11-19T02:15:51;12.80;99.90
18502;DHT22;68437;52.236;5.710;2023-11-19T02:18:20;12.80;99.90
18502;DHT22;68437;52.236;5.710;2023-11-19T02:20:47;12.80;99.90
18502;DHT22;68437;52.236;5.710;2023-11-19T02:23:17;12.80;99.90
18502;DHT22;68437;52.236;5.710;2023-11-19T02:25:52;12.80;99.90
18502;DHT22;68437;52.236;5.710;2023-11-19T02:28:24;12.80;99.90
18502;DHT22;68437;52.236;5.710;2023-11-19T02:30:51;12.80;99.90
18502;DHT22;68437;52.236;5.710;2023-11-19T02:33:18;12.80;99.90
18502;DHT22;68437;52.236;5.710;2023-11-19T02:35:45;12.80;99.90
18502;DHT22;68437;52.236;5.710;2023-11-19T02:38:12;12.70;99.90
18502;DHT22;68437;52.236;5.710;2023-11-19T02:40:39;12.70;99.90
18502;DHT22;68437;52.236;5.710;2023-11-19T02:43:06;12.70;99.90
18502;DHT22;68437;52.236;5.710;2023-11-19T02:45:35;12.60;99.90
18502;DHT22;68437;52.236;5.710;2023-11-19T02:48:02;12.60;99.90
18502;DHT22;68437;52.236;5.710;2023-11-19T02:50:31;12.60;99.90
18502;DHT22;68437;52.236;5.710;2023-11-19T02:52:58;12.60;99.90
18502;DHT22;68437;52.236;5.710;2023-11-19T02:55:26;12.50;99.90
18502;DHT22;68437;52.236;5.710;2023-11-19T02:57:56;12.50;99.90
18502;DHT22;68437;52.236;5.710;2023-11-19T03:00:24;12.40;99.90
18502;DHT22;68437;52.236;5.710;2023-11-19T03:03:02;12.50;99.90
18502;DHT22;68437;52.236;5.710;2023-11-19T03:05:43;12.50;99.90
18502;DHT22;68437;52.236;5.710;2023-11-19T03:08:10;12.50;99.90
18502;DHT22;68437;52.236;5.710;2023-11-19T03:10:38;12.50;99.90
18502;DHT22;68437;52.236;5.710;2023-11-19T03:13:04;12.50;99.90
18502;DHT22;68437;52.236;5.710;2023-11-19T03:15:31;12.40;99.90
18502;DHT22;68437;52.236;5.710;2023-11-19T03:17:58;12.40;99.90
18502;DHT22;68437;52.236;5.710;2023-11-19T03:20:26;12.40;99.90
18502;DHT22;68437;52.236;5.710;2023-11-19T03:22:55;12.40;99.90
18502;DHT22;68437;52.236;5.710;2023-11-19T03:25:27;12.30;99.90
18502;DHT22;68437;52.236;5.710;2023-11-19T03:27:59;12.30;99.90
18502;DHT22;68437;52.236;5.710;2023-11-19T03:30:26;12.30;99.90
18502;DHT22;68437;52.236;5.710;2023-11-19T03:32:56;12.30;99.90
18502;DHT22;68437;52.236;5.710;2023-11-19T03:35:24;12.20;99.90
18502;DHT22;68437;52.236;5.710;2023-11-19T03:37:52;12.20;99.90
18502;DHT22;68437;52.236;5.710;2023-11-19T03:40:19;12.10;99.90
18502;DHT22;68437;52.236;5.710;2023-11-19T03:42:46;12.10;99.90
18502;DHT22;68437;52.236;5.710;2023-11-19T03:45:15;12.00;99.90
18502;DHT22;68437;52.236;5.710;2023-11-19T03:47:42;12.00;99.90
18502;DHT22;68437;52.236;5.710;2023-11-19T03:50:09;11.90;99.90
18502;DHT22;68437;52.236;5.710;2023-11-19T03:52:39;11.90;99.90
18502;DHT22;68437;52.236;5.710;2023-11-19T03:55:10;12.30;99.90
18502;DHT22;68437;52.236;5.710;2023-11-19T03:57:38;11.80;99.90
18502;DHT22;68437;52.236;5.710;2023-11-19T04:00:06;11.70;99.90
18502;DHT22;68437;52.236;5.710;2023-11-19T04:02:35;11.70;99.90
18502;DHT22;68437;52.236;5.710;2023-11-19T04:05:02;11.60;99.90
18502;DHT22;68437;52.236;5.710;2023-11-19T04:07:29;11.60;99.90
18502;DHT22;68437;52.236;5.710;2023-11-19T04:09:57;11.50;99.90
18502;DHT22;68437;52.236;5.710;2023-11-19T04:12:25;11.50;99.90
18502;DHT22;68437;52.236;5.710;2023-11-19T04:14:52;11.50;99.90
18502;DHT22;68437;52.236;5.710;2023-11-19T04:17:21;11.40;99.90
18502;DHT22;68437;52.236;5.710;2023-11-19T04:19:48;11.50;99.90
18502;DHT22;68437;52.236;5.710;2023-11-19T04:22:15;11.50;99.90
18502;DHT22;68437;52.236;5.710;2023-11-19T04:24:43;11.50;99.90
18502;DHT22;68437;52.236;5.710;2023-11-19T04:27:11;11.50;99.90
18502;DHT22;68437;52.236;5.710;2023-11-19T04:29:39;11.50;99.90
18502;DHT22;68437;52.236;5.710;2023-11-19T04:32:06;11.60;99.90
18502;DHT22;68437;52.236;5.710;2023-11-19T04:34:33;11.60;99.90
18502;DHT22;68437;52.236;5.710;2023-11-19T04:37:00;11.60;99.90
18502;DHT22;68437;52.236;5.710;2023-11-19T04:39:28;11.60;99.90
18502;DHT22;68437;52.236;5.710;2023-11-19T04:41:55;11.60;99.90
18502;DHT22;68437;52.236;5.710;2023-11-19T04:44:22;11.60;99.90
18502;DHT22;68437;52.236;5.710;2023-11-19T04:46:50;11.60;99.90
18502;DHT22;68437;52.236;5.710;2023-11-19T04:49:17;11.60;99.90
18502;DHT22;68437;52.236;5.710;2023-11-19T04:51:45;11.60;99.90
18502;DHT22;68437;52.236;5.710;2023-11-19T04:54:12;11.50;99.90
18502;DHT22;68437;52.236;5.710;2023-11-19T04:56:39;11.50;99.90
18502;DHT22;68437;52.236;5.710;2023-11-19T04:59:06;11.50;99.90
18502;DHT22;68437;52.236;5.710;2023-11-19T05:01:34;11.50;99.90
18502;DHT22;68437;52.236;5.710;2023-11-19T05:04:02;11.50;99.90
18502;DHT22;68437;52.236;5.710;2023-11-19T05:06:30;11.50;99.90
18502;DHT22;68437;52.236;5.710;2023-11-19T05:08:58;11.50;99.90
18502;DHT22;68437;52.236;5.710;2023-11-19T05:11:26;11.50;99.90
18502;DHT22;68437;52.236;5.710;2023-11-19T05:13:53;11.40;99.90
18502;DHT22;68437;52.236;5.710;2023-11-19T05:16:20;11.40;99.90
18502;DHT22;68437;52.236;5.710;2023-11-19T05:18:47;11.50;99.90
18502;DHT22;68437;52.236;5.710;2023-11-19T05:21:15;11.50;99.90
18502;DHT22;68437;52.236;5.710;2023-11-19T05:23:43;11.40;99.90
18502;DHT22;68437;52.236;5.710;2023-11-19T05:26:16;11.40;99.90
18502;DHT22;68437;52.236;5.710;2023-11-19T05:28:43;11.40;99.90
18502;DHT22;68437;52.236;5.710;2023-11-19T05:31:10;11.40;99.90
18502;DHT22;68437;52.236;5.710;2023-11-19T05:33:37;11.40;99.90
18502;DHT22;68437;52.236;5.710;2023-11-19T05:36:05;11.30;99.90
18502;DHT22;68437;52.236;5.710;2023-11-19T05:38:34;11.30;99.90
18502;DHT22;68437;52.236;5.710;2023-11-19T05:41:01;11.30;99.90
18502;DHT22;68437;52.236;5.710;2023-11-19T05:43:28;11.30;99.90
18502;DHT22;68437;52.236;5.710;2023-11-19T05:45:58;11.30;99.90
18502;DHT22;68437;52.236;5.710;2023-11-19T05:48:27;11.30;99.90
18502;DHT22;68437;52.236;5.710;2023-11-19T05:50:54;11.30;99.90
18502;DHT22;68437;52.236;5.710;2023-11-19T05:53:21;11.30;99.90
18502;DHT22;68437;52.236;5.710;2023-11-19T05:55:49;11.30;99.90
18502;DHT22;68437;52.236;5.710;2023-11-19T05:58:23;11.30;99.90
18502;DHT22;68437;52.236;5.710;2023-11-19T06:00:51;11.30;99.90
18502;DHT22;68437;52.236;5.710;2023-11-19T06:03:18;11.30;99.90
18502;DHT22;68437;52.236;5.710;2023-11-19T06:05:47;11.20;99.90
18502;DHT22;68437;52.236;5.710;2023-11-19T06:08:15;11.20;99.90
18502;DHT22;68437;52.236;5.710;2023-11-19T06:10:42;11.20;99.90
18502;DHT22;68437;52.236;5.710;2023-11-19T06:13:13;11.10;99.90
18502;DHT22;68437;52.236;5.710;2023-11-19T06:15:40;11.10;99.90
18502;DHT22;68437;52.236;5.710;2023-11-19T06:18:07;11.10;99.90
18502;DHT22;68437;52.236;5.710;2023-11-19T06:20:34;11.10;99.90
18502;DHT22;68437;52.236;5.710;2023-11-19T06:23:01;11.00;99.90
18502;DHT22;68437;52.236;5.710;2023-11-19T06:25:28;11.00;99.90
18502;DHT22;68437;52.236;5.710;2023-11-19T06:27:54;11.00;99.90
18502;DHT22;68437;52.236;5.710;2023-11-19T06:30:24;11.00;99.90
18502;DHT22;68437;52.236;5.710;2023-11-19T06:32:51;11.00;99.90
18502;DHT22;68437;52.236;5.710;2023-11-19T06:35:18;11.00;99.90
18502;DHT22;68437;52.236;5.710;2023-11-19T06:37:44;11.00;99.90
18502;DHT22;68437;52.236;5.710;2023-11-19T06:40:11;11.00;99.90
18502;DHT22;68437;52.236;5.710;2023-11-19T06:42:38;11.00;99.90
18502;DHT22;68437;52.236;5.710;2023-11-19T06:45:06;11.00;99.90
18502;DHT22;68437;52.236;5.710;2023-11-19T06:47:35;11.00;99.90
18502;DHT22;68437;52.236;5.710;2023-11-19T06:50:02;11.00;99.90
18502;DHT22;68437;52.236;5.710;2023-11-19T06:52:31;11.00;99.90
18502;DHT22;68437;52.236;5.710;2023-11-19T06:54:58;11.00;99.90
18502;DHT22;68437;52.236;5.710;2023-11-19T06:57:24;11.00;99.90
18502;DHT22;68437;52.236;5.710;2023-11-19T06:59:51;11.00;99.90
18502;DHT22;68437;52.236;5.710;2023-11-19T07:02:18;11.00;99.90
18502;DHT22;68437;52.236;5.710;2023-11-19T07:04:46;11.00;99.90
18502;DHT22;68437;52.236;5.710;2023-11-19T07:07:13;11.00;99.90
18502;DHT22;68437;52.236;5.710;2023-11-19T07:09:41;11.00;99.90
18502;DHT22;68437;52.236;5.710;2023-11-19T07:12:08;11.10;99.90
18502;DHT22;68437;52.236;5.710;2023-11-19T07:14:35;11.10;99.90
18502;DHT22;68437;52.236;5.710;2023-11-19T07:17:02;11.00;99.90
18502;DHT22;68437;52.236;5.710;2023-11-19T07:19:29;11.10;99.90
18502;DHT22;68437;52.236;5.710;2023-11-19T07:21:57;11.10;99.90
18502;DHT22;68437;52.236;5.710;2023-11-19T07:24:24;11.10;99.90
18502;DHT22;68437;52.236;5.710;2023-11-19T07:26:53;11.10;99.90
18502;DHT22;68437;52.236;5.710;2023-11-19T07:29:19;11.00;99.90
18502;DHT22;68437;52.236;5.710;2023-11-19T07:31:48;11.00;99.90
18502;DHT22;68437;52.236;5.710;2023-11-19T07:34:14;11.10;99.90
18502;DHT22;68437;52.236;5.710;2023-11-19T07:36:41;11.10;99.90
18502;DHT22;68437;52.236;5.710;2023-11-19T07:39:09;11.10;99.90
18502;DHT22;68437;52.236;5.710;2023-11-19T07:41:36;11.10;99.90
18502;DHT22;68437;52.236;5.710;2023-11-19T07:44:04;11.10;99.90
18502;DHT22;68437;52.236;5.710;2023-11-19T07:46:33;11.10;99.90
18502;DHT22;68437;52.236;5.710;2023-11-19T07:49:03;11.10;99.90
18502;DHT22;68437;52.236;5.710;2023-11-19T07:51:30;11.10;99.90
18502;DHT22;68437;52.236;5.710;2023-11-19T07:53:56;11.10;99.90
18502;DHT22;68437;52.236;5.710;2023-11-19T07:56:25;11.10;99.90
18502;DHT22;68437;52.236;5.710;2023-11-19T07:58:52;11.10;99.90
18502;DHT22;68437;52.236;5.710;2023-11-19T08:01:18;11.20;99.90
18502;DHT22;68437;52.236;5.710;2023-11-19T08:03:45;11.20;99.90
18502;DHT22;68437;52.236;5.710;2023-11-19T08:06:12;11.20;99.90
18502;DHT22;68437;52.236;5.710;2023-11-19T08:08:39;11.30;99.90
18502;DHT22;68437;52.236;5.710;2023-11-19T08:11:06;11.30;99.90
18502;DHT22;68437;52.236;5.710;2023-11-19T08:13:34;11.40;99.90
18502;DHT22;68437;52.236;5.710;2023-11-19T08:16:01;11.40;99.90
18502;DHT22;68437;52.236;5.710;2023-11-19T08:18:28;11.40;99.90
18502;DHT22;68437;52.236;5.710;2023-11-19T08:20:54;11.50;99.90
18502;DHT22;68437;52.236;5.710;2023-11-19T08:23:23;11.50;99.90
18502;DHT22;68437;52.236;5.710;2023-11-19T08:25:51;11.50;99.90
18502;DHT22;68437;52.236;5.710;2023-11-19T08:28:18;11.50;99.90
18502;DHT22;68437;52.236;5.710;2023-11-19T08:30:46;11.50;99.90
18502;DHT22;68437;52.236;5.710;2023-11-19T08:33:13;11.60;99.90
18502;DHT22;68437;52.236;5.710;2023-11-19T08:35:43;11.50;99.90
18502;DHT22;68437;52.236;5.710;2023-11-19T08:38:13;11.50;99.90
18502;DHT22;68437;52.236;5.710;2023-11-19T08:40:40;11.50;99.90
18502;DHT22;68437;52.236;5.710;2023-11-19T08:43:07;11.50;99.90
18502;DHT22;68437;52.236;5.710;2023-11-19T08:45:34;11.50;99.90
18502;DHT22;68437;52.236;5.710;2023-11-19T08:48:03;11.60;99.90
18502;DHT22;68437;52.236;5.710;2023-11-19T08:50:30;11.60;99.90
18502;DHT22;68437;52.236;5.710;2023-11-19T08:52:57;11.70;99.90
18502;DHT22;68437;52.236;5.710;2023-11-19T08:55:23;11.70;99.90
18502;DHT22;68437;52.236;5.710;2023-11-19T08:57:51;11.80;99.90
18502;DHT22;68437;52.236;5.710;2023-11-19T09:00:18;11.90;99.90
18502;DHT22;68437;52.236;5.710;2023-11-19T09:02:46;11.90;99.90
18502;DHT22;68437;52.236;5.710;2023-11-19T09:05:14;11.90;99.90
18502;DHT22;68437;52.236;5.710;2023-11-19T09:07:41;11.80;99.90
18502;DHT22;68437;52.236;5.710;2023-11-19T09:10:09;11.90;99.90
18502;DHT22;68437;52.236;5.710;2023-11-19T09:12:37;11.90;99.90
18502;DHT22;68437;52.236;5.710;2023-11-19T09:15:04;11.90;99.90
18502;DHT22;68437;52.236;5.710;2023-11-19T09:17:34;11.90;99.90
18502;DHT22;68437;52.236;5.710;2023-11-19T09:20:03;11.90;99.90
18502;DHT22;68437;52.236;5.710;2023-11-19T09:22:32;12.00;99.90
18502;DHT22;68437;52.236;5.710;2023-11-19T09:24:58;12.00;99.90
18502;DHT22;68437;52.236;5.710;2023-11-19T09:27:26;12.00;99.90
18502;DHT22;68437;52.236;5.710;2023-11-19T09:29:52;12.00;99.90
18502;DHT22;68437;52.236;5.710;2023-11-19T09:32:23;12.20;99.90
18502;DHT22;68437;52.236;5.710;2023-11-19T09:34:49;12.30;99.90
18502;DHT22;68437;52.236;5.710;2023-11-19T09:37:16;12.30;99.90
18502;DHT22;68437;52.236;5.710;2023-11-19T09:39:47;12.20;99.90
18502;DHT22;68437;52.236;5.710;2023-11-19T09:42:14;12.20;99.90
18502;DHT22;68437;52.236;5.710;2023-11-19T09:44:42;12.20;99.90
18502;DHT22;68437;52.236;5.710;2023-11-19T09:47:11;12.10;99.90
18502;DHT22;68437;52.236;5.710;2023-11-19T09:49:38;12.10;99.90
18502;DHT22;68437;52.236;5.710;2023-11-19T09:52:05;12.10;99.90
18502;DHT22;68437;52.236;5.710;2023-11-19T09:54:32;12.20;99.90
18502;DHT22;68437;52.236;5.710;2023-11-19T09:57:02;12.20;99.90
18502;DHT22;68437;52.236;5.710;2023-11-19T09:59:29;12.20;99.90
18502;DHT22;68437;52.236;5.710;2023-11-19T10:01:56;12.30;99.90
18502;DHT22;68437;52.236;5.710;2023-11-19T10:04:24;12.40;99.90
18502;DHT22;68437;52.236;5.710;2023-11-19T10:06:52;12.50;99.90
18502;DHT22;68437;52.236;5.710;2023-11-19T10:09:18;12.50;99.90
18502;DHT22;68437;52.236;5.710;2023-11-19T10:11:45;12.60;99.90
18502;DHT22;68437;52.236;5.710;2023-11-19T10:14:14;12.60;99.90
18502;DHT22;68437;52.236;5.710;2023-11-19T10:16:40;12.60;99.90
18502;DHT22;68437;52.236;5.710;2023-11-19T10:19:09;12.50;99.90
18502;DHT22;68437;52.236;5.710;2023-11-19T10:21:39;12.50;99.90
18502;DHT22;68437;52.236;5.710;2023-11-19T10:24:06;12.40;99.90
18502;DHT22;68437;52.236;5.710;2023-11-19T10:26:32;12.40;99.90
18502;DHT22;68437;52.236;5.710;2023-11-19T10:28:59;12.40;99.90
18502;DHT22;68437;52.236;5.710;2023-11-19T10:31:28;12.40;99.90
18502;DHT22;68437;52.236;5.710;2023-11-19T10:33:55;12.40;99.90
18502;DHT22;68437;52.236;5.710;2023-11-19T10:36:21;12.40;99.90
18502;DHT22;68437;52.236;5.710;2023-11-19T10:38:53;12.40;99.90
18502;DHT22;68437;52.236;5.710;2023-11-19T10:41:30;12.40;99.90
18502;DHT22;68437;52.236;5.710;2023-11-19T10:43:57;12.40;99.90
18502;DHT22;68437;52.236;5.710;2023-11-19T10:46:37;12.40;99.90
18502;DHT22;68437;52.236;5.710;2023-11-19T10:49:05;12.40;99.90
18502;DHT22;68437;52.236;5.710;2023-11-19T10:51:33;12.40;99.90
18502;DHT22;68437;52.236;5.710;2023-11-19T10:54:02;12.50;99.90
18502;DHT22;68437;52.236;5.710;2023-11-19T10:56:31;12.50;99.90
18502;DHT22;68437;52.236;5.710;2023-11-19T10:58:59;12.50;99.90
18502;DHT22;68437;52.236;5.710;2023-11-19T11:01:29;12.60;99.90
18502;DHT22;68437;52.236;5.710;2023-11-19T11:04:02;12.60;99.90
18502;DHT22;68437;52.236;5.710;2023-11-19T11:06:30;12.60;99.90
18502;DHT22;68437;52.236;5.710;2023-11-19T11:08:57;12.80;99.90
18502;DHT22;68437;52.236;5.710;2023-11-19T11:11:25;12.90;99.90
18502;DHT22;68437;52.236;5.710;2023-11-19T11:13:53;13.00;99.90
18502;DHT22;68437;52.236;5.710;2023-11-19T11:16:22;12.80;99.90
18502;DHT22;68437;52.236;5.710;2023-11-19T11:18:50;12.50;99.90
18502;DHT22;68437;52.236;5.710;2023-11-19T11:21:21;12.30;99.90
18502;DHT22;68437;52.236;5.710;2023-11-19T11:24:05;12.30;99.90
18502;DHT22;68437;52.236;5.710;2023-11-19T11:26:50;12.30;99.90
18502;DHT22;68437;52.236;5.710;2023-11-19T11:29:26;12.30;99.90
18502;DHT22;68437;52.236;5.710;2023-11-19T11:32:01;12.40;99.90
18502;DHT22;68437;52.236;5.710;2023-11-19T11:34:57;12.50;99.90
18502;DHT22;68437;52.236;5.710;2023-11-19T11:37:33;12.50;99.90
18502;DHT22;68437;52.236;5.710;2023-11-19T11:40:02;12.60;99.90
18502;DHT22;68437;52.236;5.710;2023-11-19T11:42:35;12.70;99.90
18502;DHT22;68437;52.236;5.710;2023-11-19T11:45:04;12.80;99.90
18502;DHT22;68437;52.236;5.710;2023-11-19T11:50:49;12.80;99.90
18502;DHT22;68437;52.236;5.710;2023-11-19T11:53:19;12.80;99.90
18502;DHT22;68437;52.236;5.710;2023-11-19T11:55:56;12.90;99.90
18502;DHT22;68437;52.236;5.710;2023-11-19T11:58:29;13.00;99.90
18502;DHT22;68437;52.236;5.710;2023-11-19T12:00:58;13.00;99.90
18502;DHT22;68437;52.236;5.710;2023-11-19T12:03:28;13.00;99.90
18502;DHT22;68437;52.236;5.710;2023-11-19T12:05:55;13.00;99.90
18502;DHT22;68437;52.236;5.710;2023-11-19T12:08:28;13.00;99.90
18502;DHT22;68437;52.236;5.710;2023-11-19T12:10:56;13.00;99.90
18502;DHT22;68437;52.236;5.710;2023-11-19T12:13:26;13.00;99.90
18502;DHT22;68437;52.236;5.710;2023-11-19T12:16:08;12.90;99.90
18502;DHT22;68437;52.236;5.710;2023-11-19T12:18:35;12.90;99.90
18502;DHT22;68437;52.236;5.710;2023-11-19T12:21:02;12.90;99.90
18502;DHT22;68437;52.236;5.710;2023-11-19T12:23:32;12.90;99.90
18502;DHT22;68437;52.236;5.710;2023-11-19T12:25:59;12.80;99.90
18502;DHT22;68437;52.236;5.710;2023-11-19T12:28:26;12.80;99.90
18502;DHT22;68437;52.236;5.710;2023-11-19T12:30:53;12.80;99.90
18502;DHT22;68437;52.236;5.710;2023-11-19T12:33:22;12.80;99.90
18502;DHT22;68437;52.236;5.710;2023-11-19T12:35:48;12.80;99.90
18502;DHT22;68437;52.236;5.710;2023-11-19T12:38:18;12.80;99.90
18502;DHT22;68437;52.236;5.710;2023-11-19T12:40:47;12.80;99.90
18502;DHT22;68437;52.236;5.710;2023-11-19T12:43:28;13.00;99.90
18502;DHT22;68437;52.236;5.710;2023-11-19T12:45:55;13.20;99.90
18502;DHT22;68437;52.236;5.710;2023-11-19T12:48:22;13.30;99.90
18502;DHT22;68437;52.236;5.710;2023-11-19T12:50:52;13.30;99.90
18502;DHT22;68437;52.236;5.710;2023-11-19T12:53:19;13.30;99.90
18502;DHT22;68437;52.236;5.710;2023-11-19T12:55:47;13.20;99.90
18502;DHT22;68437;52.236;5.710;2023-11-19T12:58:30;13.20;99.90
18502;DHT22;68437;52.236;5.710;2023-11-19T13:01:01;13.00;99.90
18502;DHT22;68437;52.236;5.710;2023-11-19T13:03:31;13.00;99.90
18502;DHT22;68437;52.236;5.710;2023-11-19T13:06:03;12.90;99.90
18502;DHT22;68437;52.236;5.710;2023-11-19T13:08:36;12.70;99.90
18502;DHT22;68437;52.236;5.710;2023-11-19T13:11:06;12.70;99.90
18502;DHT22;68437;52.236;5.710;2023-11-19T13:13:55;12.60;99.90
18502;DHT22;68437;52.236;5.710;2023-11-19T13:16:22;12.60;99.90
18502;DHT22;68437;52.236;5.710;2023-11-19T13:18:49;12.50;99.90
18502;DHT22;68437;52.236;5.710;2023-11-19T13:21:17;12.50;99.90
18502;DHT22;68437;52.236;5.710;2023-11-19T13:23:44;12.60;99.90
18502;DHT22;68437;52.236;5.710;2023-11-19T13:26:12;12.60;99.90
18502;DHT22;68437;52.236;5.710;2023-11-19T13:28:39;12.60;99.90
18502;DHT22;68437;52.236;5.710;2023-11-19T13:31:06;12.60;99.90
18502;DHT22;68437;52.236;5.710;2023-11-19T13:33:33;12.50;99.90
18502;DHT22;68437;52.236;5.710;2023-11-19T13:35:59;12.40;99.90
18502;DHT22;68437;52.236;5.710;2023-11-19T13:38:31;12.40;99.90
18502;DHT22;68437;52.236;5.710;2023-11-19T13:40:58;12.50;99.90
18502;DHT22;68437;52.236;5.710;2023-11-19T13:43:26;12.50;99.90
18502;DHT22;68437;52.236;5.710;2023-11-19T13:45:54;12.50;99.90
18502;DHT22;68437;52.236;5.710;2023-11-19T13:48:21;12.50;99.90
18502;DHT22;68437;52.236;5.710;2023-11-19T13:50:48;12.50;99.90
18502;DHT22;68437;52.236;5.710;2023-11-19T13:53:15;12.60;99.90
18502;DHT22;68437;52.236;5.710;2023-11-19T13:55:42;12.50;99.90
18502;DHT22;68437;52.236;5.710;2023-11-19T13:58:09;12.50;99.90
18502;DHT22;68437;52.236;5.710;2023-11-19T14:00:37;12.40;99.90
18502;DHT22;68437;52.236;5.710;2023-11-19T14:03:04;12.40;99.90
18502;DHT22;68437;52.236;5.710;2023-11-19T14:05:31;12.30;99.90
18502;DHT22;68437;52.236;5.710;2023-11-19T14:07:58;12.10;99.90
18502;DHT22;68437;52.236;5.710;2023-11-19T14:10:26;11.90;99.90
18502;DHT22;68437;52.236;5.710;2023-11-19T14:12:54;11.70;99.90
18502;DHT22;68437;52.236;5.710;2023-11-19T14:15:20;11.60;99.90
18502;DHT22;68437;52.236;5.710;2023-11-19T14:17:49;11.50;99.90
18502;DHT22;68437;52.236;5.710;2023-11-19T14:20:15;11.40;99.90
18502;DHT22;68437;52.236;5.710;2023-11-19T14:22:44;11.40;99.90
18502;DHT22;68437;52.236;5.710;2023-11-19T14:25:13;11.40;99.90
18502;DHT22;68437;52.236;5.710;2023-11-19T14:27:42;11.40;99.90
18502;DHT22;68437;52.236;5.710;2023-11-19T14:30:10;11.40;99.90
18502;DHT22;68437;52.236;5.710;2023-11-19T14:32:39;11.40;99.90
18502;DHT22;68437;52.236;5.710;2023-11-19T14:35:09;11.40;99.90
18502;DHT22;68437;52.236;5.710;2023-11-19T14:37:36;11.50;99.90
18502;DHT22;68437;52.236;5.710;2023-11-19T14:40:03;11.50;99.90
18502;DHT22;68437;52.236;5.710;2023-11-19T14:42:31;11.50;99.90
18502;DHT22;68437;52.236;5.710;2023-11-19T14:44:58;11.50;99.90
18502;DHT22;68437;52.236;5.710;2023-11-19T14:47:25;11.50;99.90
18502;DHT22;68437;52.236;5.710;2023-11-19T14:49:51;11.50;99.90
18502;DHT22;68437;52.236;5.710;2023-11-19T14:52:20;11.50;99.90
18502;DHT22;68437;52.236;5.710;2023-11-19T14:54:46;11.60;99.90
18502;DHT22;68437;52.236;5.710;2023-11-19T14:57:13;11.50;99.90
18502;DHT22;68437;52.236;5.710;2023-11-19T14:59:40;11.50;99.90
18502;DHT22;68437;52.236;5.710;2023-11-19T15:02:07;11.50;99.90
18502;DHT22;68437;52.236;5.710;2023-11-19T15:04:34;11.50;99.90
18502;DHT22;68437;52.236;5.710;2023-11-19T15:07:01;11.50;99.90
18502;DHT22;68437;52.236;5.710;2023-11-19T15:09:29;11.50;99.90
18502;DHT22;68437;52.236;5.710;2023-11-19T15:11:58;11.50;99.90
18502;DHT22;68437;52.236;5.710;2023-11-19T15:14:25;11.50;99.90
18502;DHT22;68437;52.236;5.710;2023-11-19T15:16:51;11.50;99.90
18502;DHT22;68437;52.236;5.710;2023-11-19T15:19:18;11.50;99.90
18502;DHT22;68437;52.236;5.710;2023-11-19T15:21:45;11.50;99.90
18502;DHT22;68437;52.236;5.710;2023-11-19T15:24:12;11.50;99.90
18502;DHT22;68437;52.236;5.710;2023-11-19T15:26:40;11.50;99.90
18502;DHT22;68437;52.236;5.710;2023-11-19T15:29:07;11.50;99.90
18502;DHT22;68437;52.236;5.710;2023-11-19T15:31:34;11.50;99.90
18502;DHT22;68437;52.236;5.710;2023-11-19T15:34:01;11.50;99.90
18502;DHT22;68437;52.236;5.710;2023-11-19T15:36:28;11.40;99.90
18502;DHT22;68437;52.236;5.710;2023-11-19T15:38:57;11.50;99.90